sensor_id;sensor_type;location;lat;lon;timestamp;P1;durP1;ratioP1;P2;durP2;ratioP2
54121;SDS011;40029;58.708;50.190;2023-02-25T00:01:38;16.40;;;6.27;;
54121;SDS011;40029;58.708;50.190;2023-02-25T00:04:09;18.57;;;6.60;;
54121;SDS011;40029;58.708;50.190;2023-02-25T00:06:41;19.17;;;5.77;;
54121;SDS011;40029;58.708;50.190;2023-02-25T00:09:12;20.93;;;5.53;;
54121;SDS011;40029;58.708;50.190;2023-02-25T00:11:43;16.90;;;6.27;;
54121;SDS011;40029;58.708;50.190;2023-02-25T00:14:14;14.13;;;6.30;;
54121;SDS011;40029;58.708;50.190;2023-02-25T00:16:47;22.23;;;6.30;;
54121;SDS011;40029;58.708;50.190;2023-02-25T00:19:19;12.50;;;5.47;;
54121;SDS011;40029;58.708;50.190;2023-02-25T00:21:50;19.40;;;6.73;;
54121;SDS011;40029;58.708;50.190;2023-02-25T00:24:21;19.00;;;6.60;;
54121;SDS011;40029;58.708;50.190;2023-02-25T00:27:11;24.10;;;7.07;;
54121;SDS011;40029;58.708;50.190;2023-02-25T00:29:42;27.30;;;7.80;;
54121;SDS011;40029;58.708;50.190;2023-02-25T00:32:13;23.90;;;8.40;;
54121;SDS011;40029;58.708;50.190;2023-02-25T00:34:44;32.47;;;11.13;;
54121;SDS011;40029;58.708;50.190;2023-02-25T00:37:16;24.30;;;9.77;;
54121;SDS011;40029;58.708;50.190;2023-02-25T00:39:49;22.03;;;8.43;;
54121;SDS011;40029;58.708;50.190;2023-02-25T00:42:20;37.27;;;8.67;;
54121;SDS011;40029;58.708;50.190;2023-02-25T00:44:51;23.27;;;7.43;;
54121;SDS011;40029;58.708;50.190;2023-02-25T00:47:22;21.33;;;7.77;;
54121;SDS011;40029;58.708;50.190;2023-02-25T00:49:53;23.37;;;7.47;;
54121;SDS011;40029;58.708;50.190;2023-02-25T00:52:24;19.17;;;6.73;;
54121;SDS011;40029;58.708;50.190;2023-02-25T00:54:55;31.97;;;8.03;;
54121;SDS011;40029;58.708;50.190;2023-02-25T00:57:26;24.80;;;7.83;;
54121;SDS011;40029;58.708;50.190;2023-02-25T00:59:58;20.87;;;7.77;;
54121;SDS011;40029;58.708;50.190;2023-02-25T01:02:29;26.03;;;7.93;;
54121;SDS011;40029;58.708;50.190;2023-02-25T01:05:01;21.73;;;7.53;;
54121;SDS011;40029;58.708;50.190;2023-02-25T01:07:34;19.93;;;6.10;;
54121;SDS011;40029;58.708;50.190;2023-02-25T01:10:05;18.27;;;6.80;;
54121;SDS011;40029;58.708;50.190;2023-02-25T01:12:37;21.57;;;7.67;;
54121;SDS011;40029;58.708;50.190;2023-02-25T01:15:08;17.20;;;7.10;;
54121;SDS011;40029;58.708;50.190;2023-02-25T01:17:39;24.57;;;7.70;;
54121;SDS011;40029;58.708;50.190;2023-02-25T01:20:11;23.80;;;7.17;;
54121;SDS011;40029;58.708;50.190;2023-02-25T01:22:42;16.33;;;5.77;;
54121;SDS011;40029;58.708;50.190;2023-02-25T01:25:13;16.43;;;6.80;;
54121;SDS011;40029;58.708;50.190;2023-02-25T01:28:05;19.60;;;7.30;;
54121;SDS011;40029;58.708;50.190;2023-02-25T01:30:36;18.57;;;6.57;;
54121;SDS011;40029;58.708;50.190;2023-02-25T01:33:07;22.30;;;6.83;;
54121;SDS011;40029;58.708;50.190;2023-02-25T01:35:38;23.90;;;7.57;;
54121;SDS011;40029;58.708;50.190;2023-02-25T01:38:11;18.53;;;6.87;;
54121;SDS011;40029;58.708;50.190;2023-02-25T01:40:42;17.93;;;6.63;;
54121;SDS011;40029;58.708;50.190;2023-02-25T01:43:14;21.53;;;7.47;;
54121;SDS011;40029;58.708;50.190;2023-02-25T01:45:46;17.60;;;6.73;;
54121;SDS011;40029;58.708;50.190;2023-02-25T01:48:37;19.03;;;6.87;;
54121;SDS011;40029;58.708;50.190;2023-02-25T01:53:45;20.65;;;6.60;;
54121;SDS011;40029;58.708;50.190;2023-02-25T01:56:36;27.33;;;7.57;;
54121;SDS011;40029;58.708;50.190;2023-02-25T01:59:10;19.30;;;6.87;;
54121;SDS011;40029;58.708;50.190;2023-02-25T02:01:42;26.00;;;9.30;;
54121;SDS011;40029;58.708;50.190;2023-02-25T02:04:14;17.70;;;7.70;;
54121;SDS011;40029;58.708;50.190;2023-02-25T02:06:48;21.92;;;7.75;;
54121;SDS011;40029;58.708;50.190;2023-02-25T02:09:21;25.10;;;8.33;;
54121;SDS011;40029;58.708;50.190;2023-02-25T02:11:57;24.50;;;8.57;;
54121;SDS011;40029;58.708;50.190;2023-02-25T02:14:32;22.13;;;7.43;;
54121;SDS011;40029;58.708;50.190;2023-02-25T02:17:12;23.20;;;7.07;;
54121;SDS011;40029;58.708;50.190;2023-02-25T02:31:40;21.23;;;6.73;;
54121;SDS011;40029;58.708;50.190;2023-02-25T02:34:38;29.90;;;7.82;;
54121;SDS011;40029;58.708;50.190;2023-02-25T02:37:41;24.20;;;8.03;;
54121;SDS011;40029;58.708;50.190;2023-02-25T02:43:26;24.23;;;8.57;;
54121;SDS011;40029;58.708;50.190;2023-02-25T02:46:39;23.08;;;8.27;;
54121;SDS011;40029;58.708;50.190;2023-02-25T02:49:27;26.03;;;7.70;;
54121;SDS011;40029;58.708;50.190;2023-02-25T02:52:06;25.83;;;7.60;;
54121;SDS011;40029;58.708;50.190;2023-02-25T02:54:47;21.67;;;7.87;;
54121;SDS011;40029;58.708;50.190;2023-02-25T02:57:24;29.00;;;9.10;;
54121;SDS011;40029;58.708;50.190;2023-02-25T02:59:59;27.73;;;9.83;;
54121;SDS011;40029;58.708;50.190;2023-02-25T03:02:49;35.53;;;13.10;;
54121;SDS011;40029;58.708;50.190;2023-02-25T03:05:27;21.83;;;8.17;;
54121;SDS011;40029;58.708;50.190;2023-02-25T03:08:03;20.63;;;7.18;;
54121;SDS011;40029;58.708;50.190;2023-02-25T03:10:39;23.13;;;6.67;;
54121;SDS011;40029;58.708;50.190;2023-02-25T03:13:11;21.43;;;7.90;;
54121;SDS011;40029;58.708;50.190;2023-02-25T03:15:43;22.47;;;7.87;;
54121;SDS011;40029;58.708;50.190;2023-02-25T03:21:12;22.58;;;6.47;;
54121;SDS011;40029;58.708;50.190;2023-02-25T03:23:50;12.57;;;5.80;;
54121;SDS011;40029;58.708;50.190;2023-02-25T03:26:27;32.17;;;8.70;;
54121;SDS011;40029;58.708;50.190;2023-02-25T03:29:04;24.80;;;9.20;;
54121;SDS011;40029;58.708;50.190;2023-02-25T03:31:38;29.07;;;8.87;;
54121;SDS011;40029;58.708;50.190;2023-02-25T03:34:20;31.93;;;9.47;;
54121;SDS011;40029;58.708;50.190;2023-02-25T03:36:59;20.40;;;8.03;;
54121;SDS011;40029;58.708;50.190;2023-02-25T03:39:36;28.53;;;7.87;;
54121;SDS011;40029;58.708;50.190;2023-02-25T03:42:12;24.23;;;7.90;;
54121;SDS011;40029;58.708;50.190;2023-02-25T03:44:49;22.13;;;8.53;;
54121;SDS011;40029;58.708;50.190;2023-02-25T03:47:43;24.27;;;9.70;;
54121;SDS011;40029;58.708;50.190;2023-02-25T03:50:19;22.23;;;7.50;;
54121;SDS011;40029;58.708;50.190;2023-02-25T03:53:02;18.23;;;7.33;;
54121;SDS011;40029;58.708;50.190;2023-02-25T03:55:51;17.23;;;6.37;;
54121;SDS011;40029;58.708;50.190;2023-02-25T03:58:23;23.03;;;7.77;;
54121;SDS011;40029;58.708;50.190;2023-02-25T04:00:55;21.50;;;7.33;;
54121;SDS011;40029;58.708;50.190;2023-02-25T04:03:28;15.60;;;6.70;;
54121;SDS011;40029;58.708;50.190;2023-02-25T04:06:00;24.10;;;7.60;;
54121;SDS011;40029;58.708;50.190;2023-02-25T04:08:31;29.13;;;9.17;;
54121;SDS011;40029;58.708;50.190;2023-02-25T04:11:20;30.33;;;8.83;;
54121;SDS011;40029;58.708;50.190;2023-02-25T04:13:53;29.53;;;11.70;;
54121;SDS011;40029;58.708;50.190;2023-02-25T04:16:25;31.93;;;11.07;;
54121;SDS011;40029;58.708;50.190;2023-02-25T04:19:15;27.87;;;9.53;;
54121;SDS011;40029;58.708;50.190;2023-02-25T04:21:46;31.43;;;10.17;;
54121;SDS011;40029;58.708;50.190;2023-02-25T04:24:17;26.00;;;8.90;;
54121;SDS011;40029;58.708;50.190;2023-02-25T04:27:07;32.00;;;10.20;;
54121;SDS011;40029;58.708;50.190;2023-02-25T04:29:38;30.60;;;10.33;;
54121;SDS011;40029;58.708;50.190;2023-02-25T04:32:09;34.63;;;9.43;;
54121;SDS011;40029;58.708;50.190;2023-02-25T04:34:41;21.77;;;8.93;;
54121;SDS011;40029;58.708;50.190;2023-02-25T04:37:12;26.80;;;9.60;;
54121;SDS011;40029;58.708;50.190;2023-02-25T04:39:43;24.07;;;8.70;;
54121;SDS011;40029;58.708;50.190;2023-02-25T04:42:15;26.33;;;8.53;;
54121;SDS011;40029;58.708;50.190;2023-02-25T04:44:46;30.83;;;9.87;;
54121;SDS011;40029;58.708;50.190;2023-02-25T04:47:17;27.93;;;7.80;;
54121;SDS011;40029;58.708;50.190;2023-02-25T04:50:07;34.63;;;10.27;;
54121;SDS011;40029;58.708;50.190;2023-02-25T04:52:40;41.87;;;10.57;;
54121;SDS011;40029;58.708;50.190;2023-02-25T04:55:11;37.10;;;10.00;;
54121;SDS011;40029;58.708;50.190;2023-02-25T04:57:43;29.00;;;9.53;;
54121;SDS011;40029;58.708;50.190;2023-02-25T05:00:16;33.30;;;10.27;;
54121;SDS011;40029;58.708;50.190;2023-02-25T05:02:49;41.33;;;10.80;;
54121;SDS011;40029;58.708;50.190;2023-02-25T05:05:39;52.63;;;12.00;;
54121;SDS011;40029;58.708;50.190;2023-02-25T05:08:28;56.77;;;12.67;;
54121;SDS011;40029;58.708;50.190;2023-02-25T05:11:00;40.13;;;11.57;;
54121;SDS011;40029;58.708;50.190;2023-02-25T05:13:32;49.70;;;14.07;;
54121;SDS011;40029;58.708;50.190;2023-02-25T05:16:07;45.83;;;12.87;;
54121;SDS011;40029;58.708;50.190;2023-02-25T05:18:58;40.17;;;12.83;;
54121;SDS011;40029;58.708;50.190;2023-02-25T05:21:29;38.83;;;12.70;;
54121;SDS011;40029;58.708;50.190;2023-02-25T05:24:00;43.70;;;12.27;;
54121;SDS011;40029;58.708;50.190;2023-02-25T05:26:32;46.33;;;13.47;;
54121;SDS011;40029;58.708;50.190;2023-02-25T05:29:03;60.57;;;16.40;;
54121;SDS011;40029;58.708;50.190;2023-02-25T05:31:35;71.00;;;18.47;;
54121;SDS011;40029;58.708;50.190;2023-02-25T05:34:07;44.17;;;13.07;;
54121;SDS011;40029;58.708;50.190;2023-02-25T05:36:38;39.27;;;12.03;;
54121;SDS011;40029;58.708;50.190;2023-02-25T05:39:10;37.97;;;11.20;;
54121;SDS011;40029;58.708;50.190;2023-02-25T05:41:42;35.40;;;10.77;;
54121;SDS011;40029;58.708;50.190;2023-02-25T05:44:13;27.73;;;8.53;;
54121;SDS011;40029;58.708;50.190;2023-02-25T05:46:44;30.13;;;10.97;;
54121;SDS011;40029;58.708;50.190;2023-02-25T05:49:15;27.40;;;10.07;;
54121;SDS011;40029;58.708;50.190;2023-02-25T05:51:47;34.03;;;9.73;;
54121;SDS011;40029;58.708;50.190;2023-02-25T05:54:19;29.83;;;9.67;;
54121;SDS011;40029;58.708;50.190;2023-02-25T05:56:50;31.70;;;12.43;;
54121;SDS011;40029;58.708;50.190;2023-02-25T05:59:21;25.87;;;10.37;;
54121;SDS011;40029;58.708;50.190;2023-02-25T06:01:53;28.67;;;10.83;;
54121;SDS011;40029;58.708;50.190;2023-02-25T06:04:24;27.02;;;9.95;;
54121;SDS011;40029;58.708;50.190;2023-02-25T06:06:55;28.17;;;9.40;;
54121;SDS011;40029;58.708;50.190;2023-02-25T06:09:26;33.67;;;10.50;;
54121;SDS011;40029;58.708;50.190;2023-02-25T06:11:59;28.23;;;10.00;;
54121;SDS011;40029;58.708;50.190;2023-02-25T06:14:30;26.67;;;9.97;;
54121;SDS011;40029;58.708;50.190;2023-02-25T06:17:01;29.50;;;10.23;;
54121;SDS011;40029;58.708;50.190;2023-02-25T06:19:32;32.97;;;11.03;;
54121;SDS011;40029;58.708;50.190;2023-02-25T06:22:22;27.50;;;8.67;;
54121;SDS011;40029;58.708;50.190;2023-02-25T06:24:53;27.73;;;9.13;;
54121;SDS011;40029;58.708;50.190;2023-02-25T06:27:24;28.27;;;9.07;;
54121;SDS011;40029;58.708;50.190;2023-02-25T06:29:55;23.70;;;8.33;;
54121;SDS011;40029;58.708;50.190;2023-02-25T06:32:26;18.50;;;7.00;;
54121;SDS011;40029;58.708;50.190;2023-02-25T06:34:57;19.80;;;7.23;;
54121;SDS011;40029;58.708;50.190;2023-02-25T06:37:28;21.60;;;7.10;;
54121;SDS011;40029;58.708;50.190;2023-02-25T06:39:59;18.00;;;7.90;;
54121;SDS011;40029;58.708;50.190;2023-02-25T06:42:31;20.50;;;7.57;;
54121;SDS011;40029;58.708;50.190;2023-02-25T06:45:02;25.75;;;7.93;;
54121;SDS011;40029;58.708;50.190;2023-02-25T06:47:34;20.30;;;8.07;;
54121;SDS011;40029;58.708;50.190;2023-02-25T06:50:05;20.27;;;8.93;;
54121;SDS011;40029;58.708;50.190;2023-02-25T06:52:37;20.77;;;8.40;;
54121;SDS011;40029;58.708;50.190;2023-02-25T06:55:10;24.40;;;10.35;;
54121;SDS011;40029;58.708;50.190;2023-02-25T06:57:41;28.95;;;9.88;;
54121;SDS011;40029;58.708;50.190;2023-02-25T07:00:12;29.05;;;9.73;;
54121;SDS011;40029;58.708;50.190;2023-02-25T07:02:44;30.23;;;11.90;;
54121;SDS011;40029;58.708;50.190;2023-02-25T07:05:15;25.15;;;9.75;;
54121;SDS011;40029;58.708;50.190;2023-02-25T07:07:47;23.92;;;8.85;;
54121;SDS011;40029;58.708;50.190;2023-02-25T07:10:18;27.88;;;11.35;;
54121;SDS011;40029;58.708;50.190;2023-02-25T07:13:08;31.10;;;11.00;;
54121;SDS011;40029;58.708;50.190;2023-02-25T07:15:40;34.28;;;11.23;;
54121;SDS011;40029;58.708;50.190;2023-02-25T07:18:30;26.88;;;10.18;;
54121;SDS011;40029;58.708;50.190;2023-02-25T07:21:01;31.75;;;10.80;;
54121;SDS011;40029;58.708;50.190;2023-02-25T07:23:32;35.60;;;11.63;;
54121;SDS011;40029;58.708;50.190;2023-02-25T07:26:04;33.13;;;11.38;;
54121;SDS011;40029;58.708;50.190;2023-02-25T07:28:37;38.17;;;11.30;;
54121;SDS011;40029;58.708;50.190;2023-02-25T07:31:13;37.03;;;12.10;;
54121;SDS011;40029;58.708;50.190;2023-02-25T07:33:46;36.35;;;12.38;;
54121;SDS011;40029;58.708;50.190;2023-02-25T07:36:18;40.38;;;13.80;;
54121;SDS011;40029;58.708;50.190;2023-02-25T07:39:08;35.95;;;11.95;;
54121;SDS011;40029;58.708;50.190;2023-02-25T07:41:41;40.00;;;13.38;;
54121;SDS011;40029;58.708;50.190;2023-02-25T07:44:15;37.58;;;12.68;;
54121;SDS011;40029;58.708;50.190;2023-02-25T07:46:46;44.75;;;14.30;;
54121;SDS011;40029;58.708;50.190;2023-02-25T07:49:17;41.97;;;15.02;;
54121;SDS011;40029;58.708;50.190;2023-02-25T07:51:48;43.58;;;16.00;;
54121;SDS011;40029;58.708;50.190;2023-02-25T07:54:19;36.90;;;12.98;;
54121;SDS011;40029;58.708;50.190;2023-02-25T07:56:51;44.72;;;14.57;;
54121;SDS011;40029;58.708;50.190;2023-02-25T07:59:22;45.63;;;14.27;;
54121;SDS011;40029;58.708;50.190;2023-02-25T08:01:53;53.85;;;17.42;;
54121;SDS011;40029;58.708;50.190;2023-02-25T08:04:24;38.45;;;13.45;;
54121;SDS011;40029;58.708;50.190;2023-02-25T08:06:57;51.03;;;15.50;;
54121;SDS011;40029;58.708;50.190;2023-02-25T08:09:28;41.72;;;15.85;;
54121;SDS011;40029;58.708;50.190;2023-02-25T08:11:59;41.28;;;15.40;;
54121;SDS011;40029;58.708;50.190;2023-02-25T08:14:30;39.67;;;14.57;;
54121;SDS011;40029;58.708;50.190;2023-02-25T08:17:02;35.72;;;11.77;;
54121;SDS011;40029;58.708;50.190;2023-02-25T08:19:33;30.73;;;12.45;;
54121;SDS011;40029;58.708;50.190;2023-02-25T08:22:22;35.85;;;11.73;;
54121;SDS011;40029;58.708;50.190;2023-02-25T08:24:53;27.15;;;10.88;;
54121;SDS011;40029;58.708;50.190;2023-02-25T08:27:25;27.10;;;9.75;;
54121;SDS011;40029;58.708;50.190;2023-02-25T08:29:56;26.67;;;10.10;;
54121;SDS011;40029;58.708;50.190;2023-02-25T08:32:27;27.70;;;9.57;;
54121;SDS011;40029;58.708;50.190;2023-02-25T08:34:59;27.77;;;9.85;;
54121;SDS011;40029;58.708;50.190;2023-02-25T08:37:30;22.65;;;8.93;;
54121;SDS011;40029;58.708;50.190;2023-02-25T08:40:03;29.58;;;9.82;;
54121;SDS011;40029;58.708;50.190;2023-02-25T08:42:39;20.85;;;8.73;;
54121;SDS011;40029;58.708;50.190;2023-02-25T08:45:10;20.83;;;9.40;;
54121;SDS011;40029;58.708;50.190;2023-02-25T08:47:42;20.13;;;9.32;;
54121;SDS011;40029;58.708;50.190;2023-02-25T08:50:13;26.90;;;9.52;;
54121;SDS011;40029;58.708;50.190;2023-02-25T08:52:44;27.75;;;9.90;;
54121;SDS011;40029;58.708;50.190;2023-02-25T08:55:16;32.35;;;10.90;;
54121;SDS011;40029;58.708;50.190;2023-02-25T08:57:48;25.13;;;9.07;;
54121;SDS011;40029;58.708;50.190;2023-02-25T09:00:19;26.00;;;9.77;;
54121;SDS011;40029;58.708;50.190;2023-02-25T09:02:51;25.05;;;9.70;;
54121;SDS011;40029;58.708;50.190;2023-02-25T09:05:22;34.28;;;10.02;;
54121;SDS011;40029;58.708;50.190;2023-02-25T09:08:12;38.05;;;11.90;;
54121;SDS011;40029;58.708;50.190;2023-02-25T09:10:43;34.80;;;12.02;;
54121;SDS011;40029;58.708;50.190;2023-02-25T09:13:15;49.50;;;16.45;;
54121;SDS011;40029;58.708;50.190;2023-02-25T09:15:54;32.40;;;11.60;;
54121;SDS011;40029;58.708;50.190;2023-02-25T09:18:29;30.58;;;10.48;;
54121;SDS011;40029;58.708;50.190;2023-02-25T09:21:00;25.92;;;10.40;;
54121;SDS011;40029;58.708;50.190;2023-02-25T09:23:32;47.42;;;14.38;;
54121;SDS011;40029;58.708;50.190;2023-02-25T09:26:04;37.25;;;11.48;;
54121;SDS011;40029;58.708;50.190;2023-02-25T09:28:36;32.85;;;11.55;;
54121;SDS011;40029;58.708;50.190;2023-02-25T09:31:07;32.72;;;11.75;;
54121;SDS011;40029;58.708;50.190;2023-02-25T09:33:39;30.27;;;11.38;;
54121;SDS011;40029;58.708;50.190;2023-02-25T09:36:13;27.50;;;10.13;;
54121;SDS011;40029;58.708;50.190;2023-02-25T09:38:47;26.00;;;9.82;;
54121;SDS011;40029;58.708;50.190;2023-02-25T09:44:35;30.92;;;12.07;;
54121;SDS011;40029;58.708;50.190;2023-02-25T09:47:47;28.35;;;10.93;;
54121;SDS011;40029;58.708;50.190;2023-02-25T09:50:25;30.83;;;11.15;;
54121;SDS011;40029;58.708;50.190;2023-02-25T09:53:16;33.53;;;11.23;;
54121;SDS011;40029;58.708;50.190;2023-02-25T09:55:55;34.47;;;13.13;;
54121;SDS011;40029;58.708;50.190;2023-02-25T09:58:37;36.05;;;12.60;;
54121;SDS011;40029;58.708;50.190;2023-02-25T10:01:15;29.25;;;11.18;;
54121;SDS011;40029;58.708;50.190;2023-02-25T10:04:01;31.70;;;12.07;;
54121;SDS011;40029;58.708;50.190;2023-02-25T10:06:54;32.15;;;13.32;;
54121;SDS011;40029;58.708;50.190;2023-02-25T10:09:49;34.30;;;13.13;;
54121;SDS011;40029;58.708;50.190;2023-02-25T10:12:34;30.15;;;10.88;;
54121;SDS011;40029;58.708;50.190;2023-02-25T10:15:26;38.70;;;12.88;;
54121;SDS011;40029;58.708;50.190;2023-02-25T10:18:13;37.13;;;14.35;;
54121;SDS011;40029;58.708;50.190;2023-02-25T10:21:10;31.73;;;12.05;;
54121;SDS011;40029;58.708;50.190;2023-02-25T10:23:57;35.00;;;12.18;;
54121;SDS011;40029;58.708;50.190;2023-02-25T10:26:37;29.23;;;11.23;;
54121;SDS011;40029;58.708;50.190;2023-02-25T10:29:41;35.38;;;11.82;;
54121;SDS011;40029;58.708;50.190;2023-02-25T10:32:20;31.27;;;12.32;;
54121;SDS011;40029;58.708;50.190;2023-02-25T10:35:00;35.13;;;13.35;;
54121;SDS011;40029;58.708;50.190;2023-02-25T10:37:41;29.10;;;11.00;;
54121;SDS011;40029;58.708;50.190;2023-02-25T10:40:17;27.48;;;11.57;;
54121;SDS011;40029;58.708;50.190;2023-02-25T10:42:53;28.17;;;10.57;;
54121;SDS011;40029;58.708;50.190;2023-02-25T10:45:29;31.15;;;11.10;;
54121;SDS011;40029;58.708;50.190;2023-02-25T10:48:18;28.88;;;12.05;;
54121;SDS011;40029;58.708;50.190;2023-02-25T10:51:12;24.00;;;10.68;;
54121;SDS011;40029;58.708;50.190;2023-02-25T10:54:04;27.02;;;10.82;;
54121;SDS011;40029;58.708;50.190;2023-02-25T10:56:43;29.30;;;11.38;;
54121;SDS011;40029;58.708;50.190;2023-02-25T10:59:49;32.40;;;10.75;;
54121;SDS011;40029;58.708;50.190;2023-02-25T11:02:21;30.23;;;9.52;;
54121;SDS011;40029;58.708;50.190;2023-02-25T11:04:58;29.63;;;10.60;;
54121;SDS011;40029;58.708;50.190;2023-02-25T11:07:32;33.13;;;11.10;;
54121;SDS011;40029;58.708;50.190;2023-02-25T11:12:50;25.50;;;9.15;;
54121;SDS011;40029;58.708;50.190;2023-02-25T11:17:57;27.90;;;10.68;;
54121;SDS011;40029;58.708;50.190;2023-02-25T11:20:36;27.98;;;10.52;;
54121;SDS011;40029;58.708;50.190;2023-02-25T11:23:12;34.38;;;11.93;;
54121;SDS011;40029;58.708;50.190;2023-02-25T11:25:52;31.67;;;11.32;;
54121;SDS011;40029;58.708;50.190;2023-02-25T11:28:32;25.65;;;10.20;;
54121;SDS011;40029;58.708;50.190;2023-02-25T11:31:15;24.65;;;9.50;;
54121;SDS011;40029;58.708;50.190;2023-02-25T11:33:50;26.33;;;11.02;;
54121;SDS011;40029;58.708;50.190;2023-02-25T11:36:34;27.95;;;9.55;;
54121;SDS011;40029;58.708;50.190;2023-02-25T11:42:20;19.50;;;7.72;;
54121;SDS011;40029;58.708;50.190;2023-02-25T11:45:01;24.17;;;9.18;;
54121;SDS011;40029;58.708;50.190;2023-02-25T11:47:36;26.02;;;9.52;;
54121;SDS011;40029;58.708;50.190;2023-02-25T11:52:54;26.08;;;9.43;;
54121;SDS011;40029;58.708;50.190;2023-02-25T12:04:26;27.85;;;10.10;;
54121;SDS011;40029;58.708;50.190;2023-02-25T12:21:39;30.00;;;11.95;;
54121;SDS011;40029;58.708;50.190;2023-02-25T12:52:52;37.17;;;12.88;;
54121;SDS011;40029;58.708;50.190;2023-02-25T12:58:42;28.55;;;11.98;;
54121;SDS011;40029;58.708;50.190;2023-02-25T13:10:30;31.67;;;12.55;;
54121;SDS011;40029;58.708;50.190;2023-02-25T13:19:36;32.45;;;11.38;;
54121;SDS011;40029;58.708;50.190;2023-02-25T13:31:15;48.50;;;17.52;;
54121;SDS011;40029;58.708;50.190;2023-02-25T13:51:18;39.50;;;15.30;;
54121;SDS011;40029;58.708;50.190;2023-02-25T14:03:43;28.92;;;11.75;;
54121;SDS011;40029;58.708;50.190;2023-02-25T14:15:42;28.60;;;11.55;;
54121;SDS011;40029;58.708;50.190;2023-02-25T14:18:26;33.72;;;13.73;;
54121;SDS011;40029;58.708;50.190;2023-02-25T14:24:31;50.05;;;16.25;;
54121;SDS011;40029;58.708;50.190;2023-02-25T14:30:12;52.05;;;18.23;;
54121;SDS011;40029;58.708;50.190;2023-02-25T14:44:41;77.28;;;24.83;;
54121;SDS011;40029;58.708;50.190;2023-02-25T14:47:39;77.82;;;26.60;;
54121;SDS011;40029;58.708;50.190;2023-02-25T14:50:36;66.93;;;25.10;;
54121;SDS011;40029;58.708;50.190;2023-02-25T14:53:24;63.42;;;21.02;;
54121;SDS011;40029;58.708;50.190;2023-02-25T15:06:58;65.05;;;20.15;;
54121;SDS011;40029;58.708;50.190;2023-02-25T15:12:40;59.65;;;20.38;;
54121;SDS011;40029;58.708;50.190;2023-02-25T15:20:40;66.35;;;20.15;;
54121;SDS011;40029;58.708;50.190;2023-02-25T15:23:50;55.00;;;18.17;;
54121;SDS011;40029;58.708;50.190;2023-02-25T15:26:46;43.03;;;15.60;;
54121;SDS011;40029;58.708;50.190;2023-02-25T15:32:21;50.80;;;17.05;;
54121;SDS011;40029;58.708;50.190;2023-02-25T15:35:13;47.00;;;15.98;;
54121;SDS011;40029;58.708;50.190;2023-02-25T15:40:42;44.80;;;16.45;;
54121;SDS011;40029;58.708;50.190;2023-02-25T15:45:48;40.67;;;16.50;;
54121;SDS011;40029;58.708;50.190;2023-02-25T15:48:27;47.00;;;18.83;;
54121;SDS011;40029;58.708;50.190;2023-02-25T15:51:01;41.30;;;15.00;;
54121;SDS011;40029;58.708;50.190;2023-02-25T15:53:40;43.55;;;16.73;;
54121;SDS011;40029;58.708;50.190;2023-02-25T15:58:55;34.35;;;12.95;;
54121;SDS011;40029;58.708;50.190;2023-02-25T16:01:38;45.20;;;16.17;;
54121;SDS011;40029;58.708;50.190;2023-02-25T16:07:17;31.23;;;12.13;;
54121;SDS011;40029;58.708;50.190;2023-02-25T16:12:52;37.00;;;12.93;;
54121;SDS011;40029;58.708;50.190;2023-02-25T16:15:37;34.40;;;11.82;;
54121;SDS011;40029;58.708;50.190;2023-02-25T16:20:53;34.13;;;11.75;;
54121;SDS011;40029;58.708;50.190;2023-02-25T16:23:37;31.40;;;12.60;;
54121;SDS011;40029;58.708;50.190;2023-02-25T16:32:46;28.05;;;11.07;;
54121;SDS011;40029;58.708;50.190;2023-02-25T16:41:05;38.33;;;13.27;;
54121;SDS011;40029;58.708;50.190;2023-02-25T16:43:37;32.22;;;12.80;;
54121;SDS011;40029;58.708;50.190;2023-02-25T16:46:19;38.45;;;13.38;;
54121;SDS011;40029;58.708;50.190;2023-02-25T16:49:02;35.53;;;14.38;;
54121;SDS011;40029;58.708;50.190;2023-02-25T16:51:40;32.33;;;13.48;;
54121;SDS011;40029;58.708;50.190;2023-02-25T16:57:16;35.22;;;12.68;;
54121;SDS011;40029;58.708;50.190;2023-02-25T16:59:50;31.75;;;12.63;;
54121;SDS011;40029;58.708;50.190;2023-02-25T17:02:50;34.33;;;13.90;;
54121;SDS011;40029;58.708;50.190;2023-02-25T17:05:28;33.50;;;13.10;;
54121;SDS011;40029;58.708;50.190;2023-02-25T17:08:13;35.65;;;12.20;;
54121;SDS011;40029;58.708;50.190;2023-02-25T17:10:47;34.05;;;12.65;;
54121;SDS011;40029;58.708;50.190;2023-02-25T17:13:33;34.65;;;12.82;;
54121;SDS011;40029;58.708;50.190;2023-02-25T17:16:06;34.83;;;11.52;;
54121;SDS011;40029;58.708;50.190;2023-02-25T17:19:07;31.27;;;11.93;;
54121;SDS011;40029;58.708;50.190;2023-02-25T17:21:40;26.60;;;11.83;;
54121;SDS011;40029;58.708;50.190;2023-02-25T17:24:18;31.42;;;11.77;;
54121;SDS011;40029;58.708;50.190;2023-02-25T17:27:11;32.30;;;12.13;;
54121;SDS011;40029;58.708;50.190;2023-02-25T17:29:44;32.95;;;11.55;;
54121;SDS011;40029;58.708;50.190;2023-02-25T17:32:34;31.75;;;11.02;;
54121;SDS011;40029;58.708;50.190;2023-02-25T17:35:06;34.22;;;12.77;;
54121;SDS011;40029;58.708;50.190;2023-02-25T17:37:38;35.00;;;12.55;;
54121;SDS011;40029;58.708;50.190;2023-02-25T17:40:11;31.02;;;12.48;;
54121;SDS011;40029;58.708;50.190;2023-02-25T17:42:45;41.45;;;13.27;;
54121;SDS011;40029;58.708;50.190;2023-02-25T17:48:28;34.03;;;12.32;;
54121;SDS011;40029;58.708;50.190;2023-02-25T17:51:02;38.90;;;13.27;;
54121;SDS011;40029;58.708;50.190;2023-02-25T17:56:37;34.35;;;12.63;;
54121;SDS011;40029;58.708;50.190;2023-02-25T18:01:55;39.85;;;13.75;;
54121;SDS011;40029;58.708;50.190;2023-02-25T18:07:26;31.67;;;12.55;;
54121;SDS011;40029;58.708;50.190;2023-02-25T18:10:02;33.35;;;12.50;;
54121;SDS011;40029;58.708;50.190;2023-02-25T18:12:35;34.78;;;12.30;;
54121;SDS011;40029;58.708;50.190;2023-02-25T18:15:18;41.22;;;14.13;;
54121;SDS011;40029;58.708;50.190;2023-02-25T18:17:53;35.58;;;13.48;;
54121;SDS011;40029;58.708;50.190;2023-02-25T18:20:33;31.83;;;11.60;;
54121;SDS011;40029;58.708;50.190;2023-02-25T18:28:21;37.03;;;11.70;;
54121;SDS011;40029;58.708;50.190;2023-02-25T18:30:53;30.67;;;12.27;;
54121;SDS011;40029;58.708;50.190;2023-02-25T18:33:24;33.20;;;12.20;;
54121;SDS011;40029;58.708;50.190;2023-02-25T18:36:23;34.72;;;12.32;;
54121;SDS011;40029;58.708;50.190;2023-02-25T18:38:59;33.72;;;12.15;;
54121;SDS011;40029;58.708;50.190;2023-02-25T18:41:53;37.03;;;12.52;;
54121;SDS011;40029;58.708;50.190;2023-02-25T18:44:25;29.95;;;11.32;;
54121;SDS011;40029;58.708;50.190;2023-02-25T18:46:56;34.65;;;12.50;;
54121;SDS011;40029;58.708;50.190;2023-02-25T18:49:28;36.55;;;13.48;;
54121;SDS011;40029;58.708;50.190;2023-02-25T18:51:59;37.65;;;14.40;;
54121;SDS011;40029;58.708;50.190;2023-02-25T18:54:31;35.13;;;13.52;;
54121;SDS011;40029;58.708;50.190;2023-02-25T18:57:08;36.15;;;14.45;;
54121;SDS011;40029;58.708;50.190;2023-02-25T18:59:50;30.65;;;13.43;;
54121;SDS011;40029;58.708;50.190;2023-02-25T19:04:57;36.20;;;13.77;;
54121;SDS011;40029;58.708;50.190;2023-02-25T19:07:31;33.47;;;13.80;;
54121;SDS011;40029;58.708;50.190;2023-02-25T19:10:04;36.50;;;14.27;;
54121;SDS011;40029;58.708;50.190;2023-02-25T19:12:37;31.25;;;12.75;;